Hauptseite
METAR-TAF:

METAR-TAF

Flughäfen :

Flughafen Vágar

Sørvágur, Färöer, Dänemark

Breite: 62-04N, Länge: 007-17W, Höhe: 85 m

Beobachtung

Neuester Wetterbericht von vor 14 Minuten, um 20:20 UTC
Wind 25 kt aus Nord, Böen bis zu 36 kt
Temperatur 4°C
Luftfeuchtigkeit 70%
Luftdruck 988 hPa
Sichtweite 10 km oder mehr
Leichtregen

METAR: EKVG 082020Z AUTO 35025G36KT 9999 -RA BKN027/// BKN054/// 04/M01 Q0988

Zeit: 21:34 (20:34 UTC)

Prognose

Neuester Wetterbericht von vor 5 Stunden und 12 Minuten, um 15:22 UTC
Gültige Prognose vom 08 um 15 UTC bis 08 um 21 UTC
Wind 20 kt aus Nordost
Sichtweite 10 km oder mehr
Durchbrochene Bewölkung in der Höhe von 2000 ft
Zeitweise
vom 08 um 15 UTC bis 08 um 21 UTC
Wind 28 kt aus Nord/Nordost, Böen bis zu 40 kt
Sichtweite: 1200 m
Durchbrochene Bewölkung in der Höhe von 1200 ft
Schneeschauer

TAF: EKVG 081522Z 0815/0821 04020KT 9999 BKN020 TEMPO 0815/0821 02028G40KT 1200 SHSN BKN012

Wetterbeobachtungen und Prognosen von mehr als 4000 Flughäfen (METAR und TAF Bericht).

Die verfügbaren Stationen werden durch gelbe und rote Markierungen auf der Karte dargestellt.

Führen Sie die Maus auf sie, um den Namen der Station zu sehen.

Darauf klicken, um die Beobachtung von Wetterbeobachtungen und Prognosen zu sehen.

Um die Karte zu ändern : klicken Sie auf den grünen Tasten mit einem schwarzen Kreuz Zum Vergrößern, auf den grünen Button mit einem Gedankenstrich zu verkleinern, oder auf die grünen Pfeile für benachbarte Karten.


METAR-TAF: